sensor_id;sensor_type;location;lat;lon;timestamp;P1;durP1;ratioP1;P2;durP2;ratioP2
22557;SDS011;11445;53.816;8.902;2023-04-21T00:01:56;25.63;;;11.57;;
22557;SDS011;11445;53.816;8.902;2023-04-21T00:04:23;22.25;;;12.10;;
22557;SDS011;11445;53.816;8.902;2023-04-21T00:06:51;26.67;;;12.05;;
22557;SDS011;11445;53.816;8.902;2023-04-21T00:09:18;22.02;;;11.32;;
22557;SDS011;11445;53.816;8.902;2023-04-21T00:11:47;22.77;;;12.05;;
22557;SDS011;11445;53.816;8.902;2023-04-21T00:14:14;25.20;;;12.48;;
22557;SDS011;11445;53.816;8.902;2023-04-21T00:16:41;27.38;;;11.88;;
22557;SDS011;11445;53.816;8.902;2023-04-21T00:19:08;18.58;;;11.07;;
22557;SDS011;11445;53.816;8.902;2023-04-21T00:21:37;27.83;;;12.23;;
22557;SDS011;11445;53.816;8.902;2023-04-21T00:24:05;21.85;;;11.20;;
22557;SDS011;11445;53.816;8.902;2023-04-21T00:26:32;24.08;;;12.48;;
22557;SDS011;11445;53.816;8.902;2023-04-21T00:29:01;29.17;;;11.25;;
22557;SDS011;11445;53.816;8.902;2023-04-21T00:31:28;22.08;;;12.05;;
22557;SDS011;11445;53.816;8.902;2023-04-21T00:33:55;22.00;;;12.30;;
22557;SDS011;11445;53.816;8.902;2023-04-21T00:36:22;21.17;;;11.60;;
22557;SDS011;11445;53.816;8.902;2023-04-21T00:38:52;22.90;;;12.55;;
22557;SDS011;11445;53.816;8.902;2023-04-21T00:41:19;27.80;;;12.13;;
22557;SDS011;11445;53.816;8.902;2023-04-21T00:44:01;21.42;;;12.63;;
22557;SDS011;11445;53.816;8.902;2023-04-21T00:46:29;26.50;;;11.80;;
22557;SDS011;11445;53.816;8.902;2023-04-21T00:48:56;26.67;;;12.50;;
22557;SDS011;11445;53.816;8.902;2023-04-21T00:51:23;23.38;;;12.18;;
22557;SDS011;11445;53.816;8.902;2023-04-21T00:53:53;22.63;;;11.32;;
22557;SDS011;11445;53.816;8.902;2023-04-21T00:56:21;20.33;;;11.95;;
22557;SDS011;11445;53.816;8.902;2023-04-21T00:58:49;24.95;;;12.30;;
22557;SDS011;11445;53.816;8.902;2023-04-21T01:01:19;26.50;;;12.68;;
22557;SDS011;11445;53.816;8.902;2023-04-21T01:03:46;34.53;;;12.90;;
22557;SDS011;11445;53.816;8.902;2023-04-21T01:06:14;30.90;;;11.88;;
22557;SDS011;11445;53.816;8.902;2023-04-21T01:08:41;23.88;;;11.95;;
22557;SDS011;11445;53.816;8.902;2023-04-21T01:11:09;25.30;;;11.57;;
22557;SDS011;11445;53.816;8.902;2023-04-21T01:13:37;20.63;;;12.27;;
22557;SDS011;11445;53.816;8.902;2023-04-21T01:16:04;24.48;;;12.23;;
22557;SDS011;11445;53.816;8.902;2023-04-21T01:18:34;24.15;;;12.40;;
22557;SDS011;11445;53.816;8.902;2023-04-21T01:21:01;25.83;;;11.85;;
22557;SDS011;11445;53.816;8.902;2023-04-21T01:23:31;26.73;;;12.20;;
22557;SDS011;11445;53.816;8.902;2023-04-21T01:25:58;26.52;;;11.82;;
22557;SDS011;11445;53.816;8.902;2023-04-21T01:28:25;21.48;;;11.05;;
22557;SDS011;11445;53.816;8.902;2023-04-21T01:30:52;24.17;;;12.18;;
22557;SDS011;11445;53.816;8.902;2023-04-21T01:33:19;25.38;;;12.40;;
22557;SDS011;11445;53.816;8.902;2023-04-21T01:35:46;24.75;;;11.85;;
22557;SDS011;11445;53.816;8.902;2023-04-21T01:38:14;27.27;;;12.25;;
22557;SDS011;11445;53.816;8.902;2023-04-21T01:40:44;28.98;;;11.73;;
22557;SDS011;11445;53.816;8.902;2023-04-21T01:43:14;30.25;;;11.70;;
22557;SDS011;11445;53.816;8.902;2023-04-21T01:45:43;25.25;;;11.68;;
22557;SDS011;11445;53.816;8.902;2023-04-21T01:48:11;26.98;;;11.60;;
22557;SDS011;11445;53.816;8.902;2023-04-21T01:50:38;18.23;;;11.20;;
22557;SDS011;11445;53.816;8.902;2023-04-21T01:53:05;21.10;;;10.30;;
22557;SDS011;11445;53.816;8.902;2023-04-21T01:55:32;23.77;;;10.85;;
22557;SDS011;11445;53.816;8.902;2023-04-21T01:58:00;25.73;;;11.90;;
22557;SDS011;11445;53.816;8.902;2023-04-21T02:00:28;24.98;;;11.93;;
22557;SDS011;11445;53.816;8.902;2023-04-21T02:02:55;25.30;;;11.63;;
22557;SDS011;11445;53.816;8.902;2023-04-21T02:05:22;22.92;;;10.57;;
22557;SDS011;11445;53.816;8.902;2023-04-21T02:07:49;22.48;;;11.05;;
22557;SDS011;11445;53.816;8.902;2023-04-21T02:10:16;18.60;;;10.95;;
22557;SDS011;11445;53.816;8.902;2023-04-21T02:12:43;26.92;;;11.38;;
22557;SDS011;11445;53.816;8.902;2023-04-21T02:15:11;22.45;;;9.60;;
22557;SDS011;11445;53.816;8.902;2023-04-21T02:17:38;20.05;;;11.00;;
22557;SDS011;11445;53.816;8.902;2023-04-21T02:20:07;24.38;;;11.18;;
22557;SDS011;11445;53.816;8.902;2023-04-21T02:22:36;19.58;;;10.38;;
22557;SDS011;11445;53.816;8.902;2023-04-21T02:25:03;21.45;;;10.27;;
22557;SDS011;11445;53.816;8.902;2023-04-21T02:27:31;21.65;;;10.60;;
22557;SDS011;11445;53.816;8.902;2023-04-21T02:29:58;23.42;;;11.13;;
22557;SDS011;11445;53.816;8.902;2023-04-21T02:32:26;21.90;;;10.43;;
22557;SDS011;11445;53.816;8.902;2023-04-21T02:34:53;20.70;;;10.60;;
22557;SDS011;11445;53.816;8.902;2023-04-21T02:37:20;23.73;;;10.35;;
22557;SDS011;11445;53.816;8.902;2023-04-21T02:39:47;18.77;;;9.95;;
22557;SDS011;11445;53.816;8.902;2023-04-21T02:42:14;18.95;;;10.57;;
22557;SDS011;11445;53.816;8.902;2023-04-21T02:44:41;19.35;;;10.20;;
22557;SDS011;11445;53.816;8.902;2023-04-21T02:47:08;29.92;;;9.50;;
22557;SDS011;11445;53.816;8.902;2023-04-21T02:49:40;24.23;;;10.32;;
22557;SDS011;11445;53.816;8.902;2023-04-21T02:52:07;22.27;;;10.32;;
22557;SDS011;11445;53.816;8.902;2023-04-21T02:54:34;19.90;;;9.65;;
22557;SDS011;11445;53.816;8.902;2023-04-21T02:57:01;16.42;;;9.77;;
22557;SDS011;11445;53.816;8.902;2023-04-21T02:59:28;16.88;;;9.52;;
22557;SDS011;11445;53.816;8.902;2023-04-21T03:01:55;17.77;;;9.50;;
22557;SDS011;11445;53.816;8.902;2023-04-21T03:04:22;20.90;;;9.18;;
22557;SDS011;11445;53.816;8.902;2023-04-21T03:06:51;15.68;;;9.02;;
22557;SDS011;11445;53.816;8.902;2023-04-21T03:09:18;20.42;;;9.18;;
22557;SDS011;11445;53.816;8.902;2023-04-21T03:11:45;17.75;;;9.43;;
22557;SDS011;11445;53.816;8.902;2023-04-21T03:14:13;24.60;;;9.07;;
22557;SDS011;11445;53.816;8.902;2023-04-21T03:16:40;20.75;;;9.23;;
22557;SDS011;11445;53.816;8.902;2023-04-21T03:19:07;21.70;;;10.13;;
22557;SDS011;11445;53.816;8.902;2023-04-21T03:21:35;20.17;;;10.15;;
22557;SDS011;11445;53.816;8.902;2023-04-21T03:24:05;19.45;;;9.50;;
22557;SDS011;11445;53.816;8.902;2023-04-21T03:26:33;21.15;;;9.13;;
22557;SDS011;11445;53.816;8.902;2023-04-21T03:29:00;26.77;;;9.32;;
22557;SDS011;11445;53.816;8.902;2023-04-21T03:31:27;20.40;;;9.50;;
22557;SDS011;11445;53.816;8.902;2023-04-21T03:33:54;19.25;;;10.25;;
22557;SDS011;11445;53.816;8.902;2023-04-21T03:36:21;17.48;;;9.40;;
22557;SDS011;11445;53.816;8.902;2023-04-21T03:38:48;26.70;;;9.57;;
22557;SDS011;11445;53.816;8.902;2023-04-21T03:41:16;19.23;;;9.30;;
22557;SDS011;11445;53.816;8.902;2023-04-21T03:43:43;16.08;;;8.68;;
22557;SDS011;11445;53.816;8.902;2023-04-21T03:46:16;21.55;;;9.52;;
22557;SDS011;11445;53.816;8.902;2023-04-21T03:51:11;16.30;;;9.18;;
22557;SDS011;11445;53.816;8.902;2023-04-21T03:53:38;18.80;;;9.25;;
22557;SDS011;11445;53.816;8.902;2023-04-21T03:56:05;19.48;;;8.48;;
22557;SDS011;11445;53.816;8.902;2023-04-21T03:58:34;22.13;;;9.20;;
22557;SDS011;11445;53.816;8.902;2023-04-21T04:01:03;16.02;;;8.55;;
22557;SDS011;11445;53.816;8.902;2023-04-21T04:03:31;24.58;;;9.45;;
22557;SDS011;11445;53.816;8.902;2023-04-21T04:05:58;18.73;;;9.32;;
22557;SDS011;11445;53.816;8.902;2023-04-21T04:08:26;18.95;;;8.98;;
22557;SDS011;11445;53.816;8.902;2023-04-21T04:10:53;21.10;;;9.18;;
22557;SDS011;11445;53.816;8.902;2023-04-21T04:13:20;16.75;;;8.90;;
22557;SDS011;11445;53.816;8.902;2023-04-21T04:15:50;17.00;;;8.75;;
22557;SDS011;11445;53.816;8.902;2023-04-21T04:18:17;23.02;;;9.32;;
22557;SDS011;11445;53.816;8.902;2023-04-21T04:20:44;21.10;;;8.68;;
22557;SDS011;11445;53.816;8.902;2023-04-21T04:23:11;17.75;;;8.77;;
22557;SDS011;11445;53.816;8.902;2023-04-21T04:25:38;14.40;;;8.73;;
22557;SDS011;11445;53.816;8.902;2023-04-21T04:28:05;22.40;;;8.82;;
22557;SDS011;11445;53.816;8.902;2023-04-21T04:30:33;15.68;;;9.13;;
22557;SDS011;11445;53.816;8.902;2023-04-21T04:33:02;17.88;;;9.98;;
22557;SDS011;11445;53.816;8.902;2023-04-21T04:35:29;20.02;;;8.60;;
22557;SDS011;11445;53.816;8.902;2023-04-21T04:37:56;20.60;;;10.10;;
22557;SDS011;11445;53.816;8.902;2023-04-21T04:40:23;15.85;;;8.77;;
22557;SDS011;11445;53.816;8.902;2023-04-21T04:42:51;16.98;;;8.40;;
22557;SDS011;11445;53.816;8.902;2023-04-21T04:45:19;17.55;;;9.05;;
22557;SDS011;11445;53.816;8.902;2023-04-21T04:47:47;15.25;;;8.40;;
22557;SDS011;11445;53.816;8.902;2023-04-21T04:50:16;20.52;;;9.98;;
22557;SDS011;11445;53.816;8.902;2023-04-21T04:52:43;16.08;;;8.60;;
22557;SDS011;11445;53.816;8.902;2023-04-21T04:55:11;17.00;;;8.93;;
22557;SDS011;11445;53.816;8.902;2023-04-21T04:57:39;22.88;;;9.40;;
22557;SDS011;11445;53.816;8.902;2023-04-21T05:00:07;19.48;;;9.48;;
22557;SDS011;11445;53.816;8.902;2023-04-21T05:02:35;22.08;;;9.32;;
22557;SDS011;11445;53.816;8.902;2023-04-21T05:05:03;15.07;;;9.20;;
22557;SDS011;11445;53.816;8.902;2023-04-21T05:07:33;20.92;;;9.10;;
22557;SDS011;11445;53.816;8.902;2023-04-21T05:10:00;18.95;;;8.82;;
22557;SDS011;11445;53.816;8.902;2023-04-21T05:12:28;18.85;;;9.30;;
22557;SDS011;11445;53.816;8.902;2023-04-21T05:14:56;17.95;;;8.80;;
22557;SDS011;11445;53.816;8.902;2023-04-21T05:17:23;15.77;;;8.70;;
22557;SDS011;11445;53.816;8.902;2023-04-21T05:19:51;17.77;;;8.65;;
22557;SDS011;11445;53.816;8.902;2023-04-21T05:22:18;15.10;;;9.15;;
22557;SDS011;11445;53.816;8.902;2023-04-21T05:24:46;20.20;;;9.38;;
22557;SDS011;11445;53.816;8.902;2023-04-21T05:27:13;16.30;;;9.40;;
22557;SDS011;11445;53.816;8.902;2023-04-21T05:29:40;17.40;;;9.10;;
22557;SDS011;11445;53.816;8.902;2023-04-21T05:32:07;19.85;;;9.68;;
22557;SDS011;11445;53.816;8.902;2023-04-21T05:34:36;17.77;;;9.15;;
22557;SDS011;11445;53.816;8.902;2023-04-21T05:37:03;16.90;;;9.63;;
22557;SDS011;11445;53.816;8.902;2023-04-21T05:39:30;14.85;;;8.90;;
22557;SDS011;11445;53.816;8.902;2023-04-21T05:41:58;18.88;;;9.30;;
22557;SDS011;11445;53.816;8.902;2023-04-21T05:44:26;25.83;;;9.98;;
22557;SDS011;11445;53.816;8.902;2023-04-21T05:46:53;17.45;;;10.02;;
22557;SDS011;11445;53.816;8.902;2023-04-21T05:49:20;16.02;;;9.13;;
22557;SDS011;11445;53.816;8.902;2023-04-21T05:51:47;18.35;;;9.85;;
22557;SDS011;11445;53.816;8.902;2023-04-21T05:54:14;19.55;;;9.35;;
22557;SDS011;11445;53.816;8.902;2023-04-21T05:56:41;15.85;;;8.70;;
22557;SDS011;11445;53.816;8.902;2023-04-21T05:59:10;17.42;;;9.30;;
22557;SDS011;11445;53.816;8.902;2023-04-21T06:01:37;13.20;;;8.45;;
22557;SDS011;11445;53.816;8.902;2023-04-21T06:04:04;21.38;;;9.30;;
22557;SDS011;11445;53.816;8.902;2023-04-21T06:06:31;19.42;;;9.00;;
22557;SDS011;11445;53.816;8.902;2023-04-21T06:08:58;20.08;;;9.00;;
22557;SDS011;11445;53.816;8.902;2023-04-21T06:11:25;18.50;;;9.43;;
22557;SDS011;11445;53.816;8.902;2023-04-21T06:13:52;23.13;;;9.23;;
22557;SDS011;11445;53.816;8.902;2023-04-21T06:16:23;15.05;;;8.80;;
22557;SDS011;11445;53.816;8.902;2023-04-21T06:18:51;16.10;;;9.02;;
22557;SDS011;11445;53.816;8.902;2023-04-21T06:21:18;13.15;;;8.85;;
22557;SDS011;11445;53.816;8.902;2023-04-21T06:23:45;14.18;;;8.18;;
22557;SDS011;11445;53.816;8.902;2023-04-21T06:26:12;18.25;;;8.93;;
22557;SDS011;11445;53.816;8.902;2023-04-21T06:28:39;13.57;;;8.85;;
22557;SDS011;11445;53.816;8.902;2023-04-21T06:31:06;17.48;;;8.93;;
22557;SDS011;11445;53.816;8.902;2023-04-21T06:33:40;15.70;;;8.57;;
22557;SDS011;11445;53.816;8.902;2023-04-21T06:36:07;15.57;;;8.77;;
22557;SDS011;11445;53.816;8.902;2023-04-21T06:38:35;18.90;;;9.13;;
22557;SDS011;11445;53.816;8.902;2023-04-21T06:41:04;17.10;;;8.02;;
22557;SDS011;11445;53.816;8.902;2023-04-21T06:43:31;13.68;;;8.50;;
22557;SDS011;11445;53.816;8.902;2023-04-21T06:45:58;17.48;;;8.75;;
22557;SDS011;11445;53.816;8.902;2023-04-21T06:48:25;13.52;;;8.57;;
22557;SDS011;11445;53.816;8.902;2023-04-21T06:50:55;14.45;;;8.90;;
22557;SDS011;11445;53.816;8.902;2023-04-21T06:53:22;16.52;;;8.32;;
22557;SDS011;11445;53.816;8.902;2023-04-21T06:55:49;15.75;;;7.95;;
22557;SDS011;11445;53.816;8.902;2023-04-21T06:58:17;13.82;;;8.50;;
22557;SDS011;11445;53.816;8.902;2023-04-21T07:00:44;17.45;;;8.23;;
22557;SDS011;11445;53.816;8.902;2023-04-21T07:03:11;18.83;;;8.40;;
22557;SDS011;11445;53.816;8.902;2023-04-21T07:05:38;15.60;;;7.93;;
22557;SDS011;11445;53.816;8.902;2023-04-21T07:08:06;16.02;;;8.07;;
22557;SDS011;11445;53.816;8.902;2023-04-21T07:10:33;17.63;;;8.52;;
22557;SDS011;11445;53.816;8.902;2023-04-21T07:13:00;13.02;;;8.27;;
22557;SDS011;11445;53.816;8.902;2023-04-21T07:15:27;16.38;;;8.23;;
22557;SDS011;11445;53.816;8.902;2023-04-21T07:17:54;22.10;;;8.52;;
22557;SDS011;11445;53.816;8.902;2023-04-21T07:20:22;17.70;;;8.05;;
22557;SDS011;11445;53.816;8.902;2023-04-21T07:22:49;15.68;;;8.52;;
22557;SDS011;11445;53.816;8.902;2023-04-21T07:25:18;16.05;;;8.43;;
22557;SDS011;11445;53.816;8.902;2023-04-21T07:27:45;15.27;;;8.75;;
22557;SDS011;11445;53.816;8.902;2023-04-21T07:30:12;21.02;;;8.63;;
22557;SDS011;11445;53.816;8.902;2023-04-21T07:32:40;14.00;;;8.07;;
22557;SDS011;11445;53.816;8.902;2023-04-21T07:35:08;15.50;;;8.15;;
22557;SDS011;11445;53.816;8.902;2023-04-21T07:37:35;13.93;;;8.45;;
22557;SDS011;11445;53.816;8.902;2023-04-21T07:40:02;19.30;;;8.38;;
22557;SDS011;11445;53.816;8.902;2023-04-21T07:42:31;20.33;;;8.77;;
22557;SDS011;11445;53.816;8.902;2023-04-21T07:44:58;13.27;;;7.95;;
22557;SDS011;11445;53.816;8.902;2023-04-21T07:47:26;12.65;;;8.65;;
22557;SDS011;11445;53.816;8.902;2023-04-21T07:49:53;15.02;;;8.50;;
22557;SDS011;11445;53.816;8.902;2023-04-21T07:52:20;15.13;;;8.25;;
22557;SDS011;11445;53.816;8.902;2023-04-21T07:54:47;14.88;;;8.07;;
22557;SDS011;11445;53.816;8.902;2023-04-21T07:57:15;14.43;;;8.45;;
22557;SDS011;11445;53.816;8.902;2023-04-21T07:59:43;15.07;;;8.60;;
22557;SDS011;11445;53.816;8.902;2023-04-21T08:02:10;15.35;;;8.07;;
22557;SDS011;11445;53.816;8.902;2023-04-21T08:04:37;15.15;;;8.85;;
22557;SDS011;11445;53.816;8.902;2023-04-21T08:07:05;15.30;;;8.32;;
22557;SDS011;11445;53.816;8.902;2023-04-21T08:09:33;13.48;;;8.10;;
22557;SDS011;11445;53.816;8.902;2023-04-21T08:12:00;12.05;;;7.93;;
22557;SDS011;11445;53.816;8.902;2023-04-21T08:14:28;14.88;;;8.70;;
22557;SDS011;11445;53.816;8.902;2023-04-21T08:16:58;16.75;;;8.40;;
22557;SDS011;11445;53.816;8.902;2023-04-21T08:19:25;14.15;;;7.95;;
22557;SDS011;11445;53.816;8.902;2023-04-21T08:21:52;14.30;;;8.40;;
22557;SDS011;11445;53.816;8.902;2023-04-21T08:24:21;14.85;;;8.15;;
22557;SDS011;11445;53.816;8.902;2023-04-21T08:26:48;13.30;;;8.35;;
22557;SDS011;11445;53.816;8.902;2023-04-21T08:29:16;11.93;;;8.20;;
22557;SDS011;11445;53.816;8.902;2023-04-21T08:31:43;13.27;;;8.52;;
22557;SDS011;11445;53.816;8.902;2023-04-21T08:34:12;12.35;;;7.97;;
22557;SDS011;11445;53.816;8.902;2023-04-21T08:36:39;12.25;;;7.75;;
22557;SDS011;11445;53.816;8.902;2023-04-21T08:39:06;15.52;;;8.30;;
22557;SDS011;11445;53.816;8.902;2023-04-21T08:41:34;18.98;;;8.77;;
22557;SDS011;11445;53.816;8.902;2023-04-21T08:44:05;14.88;;;7.82;;
22557;SDS011;11445;53.816;8.902;2023-04-21T08:46:32;14.23;;;8.35;;
22557;SDS011;11445;53.816;8.902;2023-04-21T08:49:00;15.10;;;9.05;;
22557;SDS011;11445;53.816;8.902;2023-04-21T08:51:29;17.15;;;8.82;;
22557;SDS011;11445;53.816;8.902;2023-04-21T08:53:56;16.15;;;8.75;;
22557;SDS011;11445;53.816;8.902;2023-04-21T08:56:23;14.15;;;8.35;;
22557;SDS011;11445;53.816;8.902;2023-04-21T08:58:51;22.45;;;8.93;;
22557;SDS011;11445;53.816;8.902;2023-04-21T09:01:18;16.95;;;8.38;;
22557;SDS011;11445;53.816;8.902;2023-04-21T09:03:45;18.75;;;8.45;;
22557;SDS011;11445;53.816;8.902;2023-04-21T09:06:12;15.60;;;8.57;;
22557;SDS011;11445;53.816;8.902;2023-04-21T09:08:42;15.15;;;8.50;;
22557;SDS011;11445;53.816;8.902;2023-04-21T09:11:17;16.60;;;8.32;;
22557;SDS011;11445;53.816;8.902;2023-04-21T09:13:44;15.90;;;9.70;;
22557;SDS011;11445;53.816;8.902;2023-04-21T09:16:15;13.05;;;8.40;;
22557;SDS011;11445;53.816;8.902;2023-04-21T09:18:44;13.00;;;8.47;;
22557;SDS011;11445;53.816;8.902;2023-04-21T09:21:11;14.30;;;8.88;;
22557;SDS011;11445;53.816;8.902;2023-04-21T09:23:44;20.58;;;8.95;;
22557;SDS011;11445;53.816;8.902;2023-04-21T09:26:13;13.55;;;8.85;;
22557;SDS011;11445;53.816;8.902;2023-04-21T09:28:41;14.95;;;8.80;;
22557;SDS011;11445;53.816;8.902;2023-04-21T09:31:12;14.93;;;8.82;;
22557;SDS011;11445;53.816;8.902;2023-04-21T09:33:44;18.17;;;9.10;;
22557;SDS011;11445;53.816;8.902;2023-04-21T09:36:18;15.18;;;8.80;;
22557;SDS011;11445;53.816;8.902;2023-04-21T09:38:56;15.55;;;8.95;;
22557;SDS011;11445;53.816;8.902;2023-04-21T09:41:24;13.82;;;8.50;;
22557;SDS011;11445;53.816;8.902;2023-04-21T09:43:51;14.90;;;8.48;;
22557;SDS011;11445;53.816;8.902;2023-04-21T09:46:18;11.70;;;8.80;;
22557;SDS011;11445;53.816;8.902;2023-04-21T09:48:46;15.75;;;8.60;;
22557;SDS011;11445;53.816;8.902;2023-04-21T09:51:14;15.23;;;8.38;;
22557;SDS011;11445;53.816;8.902;2023-04-21T09:53:43;12.30;;;9.00;;
22557;SDS011;11445;53.816;8.902;2023-04-21T09:56:13;13.25;;;8.45;;
22557;SDS011;11445;53.816;8.902;2023-04-21T09:58:43;18.35;;;9.10;;
22557;SDS011;11445;53.816;8.902;2023-04-21T10:01:12;22.17;;;9.63;;
22557;SDS011;11445;53.816;8.902;2023-04-21T10:03:41;15.05;;;8.68;;
22557;SDS011;11445;53.816;8.902;2023-04-21T10:06:10;14.55;;;9.15;;
22557;SDS011;11445;53.816;8.902;2023-04-21T10:08:37;14.43;;;8.93;;
22557;SDS011;11445;53.816;8.902;2023-04-21T10:11:05;15.77;;;8.88;;
22557;SDS011;11445;53.816;8.902;2023-04-21T10:13:35;13.10;;;8.25;;
22557;SDS011;11445;53.816;8.902;2023-04-21T10:16:04;16.52;;;8.90;;
22557;SDS011;11445;53.816;8.902;2023-04-21T10:18:33;15.45;;;8.32;;
22557;SDS011;11445;53.816;8.902;2023-04-21T10:21:03;15.90;;;8.40;;
22557;SDS011;11445;53.816;8.902;2023-04-21T10:23:36;12.93;;;8.55;;
22557;SDS011;11445;53.816;8.902;2023-04-21T10:26:06;18.52;;;9.25;;
22557;SDS011;11445;53.816;8.902;2023-04-21T10:28:40;12.65;;;8.27;;
22557;SDS011;11445;53.816;8.902;2023-04-21T10:31:18;14.32;;;9.20;;
22557;SDS011;11445;53.816;8.902;2023-04-21T10:39:50;16.92;;;8.48;;
22557;SDS011;11445;53.816;8.902;2023-04-21T10:42:21;12.75;;;8.88;;
22557;SDS011;11445;53.816;8.902;2023-04-21T10:45:00;17.70;;;9.77;;
22557;SDS011;11445;53.816;8.902;2023-04-21T10:47:34;18.02;;;9.77;;
22557;SDS011;11445;53.816;8.902;2023-04-21T10:50:12;18.73;;;9.23;;
22557;SDS011;11445;53.816;8.902;2023-04-21T10:52:45;14.80;;;9.02;;
22557;SDS011;11445;53.816;8.902;2023-04-21T10:55:17;13.95;;;9.65;;
22557;SDS011;11445;53.816;8.902;2023-04-21T10:57:44;14.38;;;9.43;;
22557;SDS011;11445;53.816;8.902;2023-04-21T11:00:17;15.60;;;9.63;;
22557;SDS011;11445;53.816;8.902;2023-04-21T11:02:54;16.00;;;9.52;;
22557;SDS011;11445;53.816;8.902;2023-04-21T11:05:32;16.70;;;9.25;;
22557;SDS011;11445;53.816;8.902;2023-04-21T11:08:03;19.85;;;9.82;;
22557;SDS011;11445;53.816;8.902;2023-04-21T11:10:45;15.85;;;9.20;;
22557;SDS011;11445;53.816;8.902;2023-04-21T11:13:19;13.15;;;8.85;;
22557;SDS011;11445;53.816;8.902;2023-04-21T11:15:58;14.73;;;9.25;;
22557;SDS011;11445;53.816;8.902;2023-04-21T11:18:31;15.52;;;9.45;;
22557;SDS011;11445;53.816;8.902;2023-04-21T11:21:11;12.82;;;8.45;;
22557;SDS011;11445;53.816;8.902;2023-04-21T11:23:49;12.57;;;6.53;;
22557;SDS011;11445;53.816;8.902;2023-04-21T11:26:17;16.00;;;8.68;;
22557;SDS011;11445;53.816;8.902;2023-04-21T11:28:54;17.92;;;9.52;;
22557;SDS011;11445;53.816;8.902;2023-04-21T11:31:23;14.77;;;8.65;;
22557;SDS011;11445;53.816;8.902;2023-04-21T11:33:54;13.77;;;8.65;;
22557;SDS011;11445;53.816;8.902;2023-04-21T11:36:22;12.90;;;8.75;;
22557;SDS011;11445;53.816;8.902;2023-04-21T11:38:49;14.60;;;8.52;;
22557;SDS011;11445;53.816;8.902;2023-04-21T11:41:19;13.07;;;7.60;;
22557;SDS011;11445;53.816;8.902;2023-04-21T11:43:47;18.17;;;8.57;;
22557;SDS011;11445;53.816;8.902;2023-04-21T11:46:17;15.27;;;8.82;;
22557;SDS011;11445;53.816;8.902;2023-04-21T11:48:58;16.35;;;8.82;;
22557;SDS011;11445;53.816;8.902;2023-04-21T11:51:26;16.63;;;9.48;;
22557;SDS011;11445;53.816;8.902;2023-04-21T11:53:57;15.43;;;8.38;;
22557;SDS011;11445;53.816;8.902;2023-04-21T11:56:24;20.83;;;8.90;;
22557;SDS011;11445;53.816;8.902;2023-04-21T11:58:52;21.60;;;9.38;;
22557;SDS011;11445;53.816;8.902;2023-04-21T12:01:19;13.38;;;8.38;;
22557;SDS011;11445;53.816;8.902;2023-04-21T12:03:50;14.52;;;8.85;;
22557;SDS011;11445;53.816;8.902;2023-04-21T12:06:24;16.73;;;8.82;;
22557;SDS011;11445;53.816;8.902;2023-04-21T12:08:55;15.63;;;9.00;;
22557;SDS011;11445;53.816;8.902;2023-04-21T12:11:25;16.02;;;8.85;;
22557;SDS011;11445;53.816;8.902;2023-04-21T12:13:55;17.73;;;8.50;;
22557;SDS011;11445;53.816;8.902;2023-04-21T12:16:23;15.00;;;9.32;;
22557;SDS011;11445;53.816;8.902;2023-04-21T12:18:51;13.55;;;8.95;;
22557;SDS011;11445;53.816;8.902;2023-04-21T12:21:18;12.10;;;8.32;;
22557;SDS011;11445;53.816;8.902;2023-04-21T12:23:47;14.93;;;9.38;;
22557;SDS011;11445;53.816;8.902;2023-04-21T12:26:14;15.80;;;8.65;;
22557;SDS011;11445;53.816;8.902;2023-04-21T12:28:41;10.27;;;8.10;;
22557;SDS011;11445;53.816;8.902;2023-04-21T12:31:08;13.85;;;8.07;;
22557;SDS011;11445;53.816;8.902;2023-04-21T12:33:35;13.63;;;8.40;;
22557;SDS011;11445;53.816;8.902;2023-04-21T12:36:02;11.82;;;8.10;;
22557;SDS011;11445;53.816;8.902;2023-04-21T12:38:30;12.43;;;8.70;;
22557;SDS011;11445;53.816;8.902;2023-04-21T12:40:58;15.95;;;8.90;;
22557;SDS011;11445;53.816;8.902;2023-04-21T12:43:25;14.07;;;7.97;;
22557;SDS011;11445;53.816;8.902;2023-04-21T12:45:52;14.82;;;7.88;;
22557;SDS011;11445;53.816;8.902;2023-04-21T12:48:19;9.93;;;7.55;;
22557;SDS011;11445;53.816;8.902;2023-04-21T12:50:46;11.50;;;8.07;;
22557;SDS011;11445;53.816;8.902;2023-04-21T12:53:13;13.18;;;8.10;;
22557;SDS011;11445;53.816;8.902;2023-04-21T12:55:40;15.73;;;7.95;;
22557;SDS011;11445;53.816;8.902;2023-04-21T12:58:09;11.90;;;8.45;;
22557;SDS011;11445;53.816;8.902;2023-04-21T13:00:36;15.48;;;7.50;;
22557;SDS011;11445;53.816;8.902;2023-04-21T13:03:04;14.27;;;8.10;;
22557;SDS011;11445;53.816;8.902;2023-04-21T13:05:31;14.25;;;7.22;;
22557;SDS011;11445;53.816;8.902;2023-04-21T13:07:58;15.90;;;7.97;;
22557;SDS011;11445;53.816;8.902;2023-04-21T13:10:25;11.57;;;7.82;;
22557;SDS011;11445;53.816;8.902;2023-04-21T13:12:52;13.05;;;8.38;;
22557;SDS011;11445;53.816;8.902;2023-04-21T13:15:20;12.50;;;7.90;;
22557;SDS011;11445;53.816;8.902;2023-04-21T13:17:48;11.00;;;7.50;;
22557;SDS011;11445;53.816;8.902;2023-04-21T13:20:15;13.23;;;8.35;;
22557;SDS011;11445;53.816;8.902;2023-04-21T13:22:43;14.32;;;7.90;;
22557;SDS011;11445;53.816;8.902;2023-04-21T13:25:10;11.40;;;7.82;;
22557;SDS011;11445;53.816;8.902;2023-04-21T13:27:37;14.93;;;7.72;;
22557;SDS011;11445;53.816;8.902;2023-04-21T13:30:05;19.42;;;8.43;;
22557;SDS011;11445;53.816;8.902;2023-04-21T13:32:35;15.32;;;8.10;;
22557;SDS011;11445;53.816;8.902;2023-04-21T13:35:03;10.68;;;7.85;;
22557;SDS011;11445;53.816;8.902;2023-04-21T13:37:32;20.52;;;8.07;;
22557;SDS011;11445;53.816;8.902;2023-04-21T13:40:00;14.70;;;7.85;;
22557;SDS011;11445;53.816;8.902;2023-04-21T13:42:27;14.30;;;8.55;;
22557;SDS011;11445;53.816;8.902;2023-04-21T13:44:54;20.00;;;7.70;;
22557;SDS011;11445;53.816;8.902;2023-04-21T13:47:22;10.88;;;7.45;;
22557;SDS011;11445;53.816;8.902;2023-04-21T13:49:50;10.30;;;7.38;;
22557;SDS011;11445;53.816;8.902;2023-04-21T13:52:17;14.98;;;7.70;;
22557;SDS011;11445;53.816;8.902;2023-04-21T13:54:44;9.77;;;6.95;;
22557;SDS011;11445;53.816;8.902;2023-04-21T13:57:11;10.68;;;8.18;;
22557;SDS011;11445;53.816;8.902;2023-04-21T13:59:38;19.10;;;7.72;;
22557;SDS011;11445;53.816;8.902;2023-04-21T14:02:05;11.45;;;7.55;;
22557;SDS011;11445;53.816;8.902;2023-04-21T14:04:33;13.30;;;7.50;;
22557;SDS011;11445;53.816;8.902;2023-04-21T14:07:01;13.15;;;7.30;;
22557;SDS011;11445;53.816;8.902;2023-04-21T14:09:29;16.30;;;7.90;;
22557;SDS011;11445;53.816;8.902;2023-04-21T14:11:56;10.23;;;7.68;;
22557;SDS011;11445;53.816;8.902;2023-04-21T14:14:23;15.90;;;7.95;;
22557;SDS011;11445;53.816;8.902;2023-04-21T14:16:50;17.88;;;8.13;;
22557;SDS011;11445;53.816;8.902;2023-04-21T14:19:17;12.27;;;7.60;;
22557;SDS011;11445;53.816;8.902;2023-04-21T14:21:45;11.05;;;7.22;;
22557;SDS011;11445;53.816;8.902;2023-04-21T14:24:13;13.63;;;6.93;;
22557;SDS011;11445;53.816;8.902;2023-04-21T14:26:40;15.23;;;7.90;;
22557;SDS011;11445;53.816;8.902;2023-04-21T14:29:08;11.10;;;7.53;;
22557;SDS011;11445;53.816;8.902;2023-04-21T14:31:35;12.00;;;7.25;;
22557;SDS011;11445;53.816;8.902;2023-04-21T14:34:02;9.18;;;7.70;;
22557;SDS011;11445;53.816;8.902;2023-04-21T14:36:29;17.48;;;7.25;;
22557;SDS011;11445;53.816;8.902;2023-04-21T14:38:56;9.80;;;7.15;;
22557;SDS011;11445;53.816;8.902;2023-04-21T14:41:25;10.32;;;6.68;;
22557;SDS011;11445;53.816;8.902;2023-04-21T14:43:52;11.45;;;7.93;;
22557;SDS011;11445;53.816;8.902;2023-04-21T14:46:20;11.52;;;7.25;;